createdAt,value
2019-02-15T00:01:17.834Z,9.00
2019-02-15T00:03:46.498Z,9.10
2019-02-15T00:06:15.167Z,9.87
2019-02-15T00:08:43.820Z,8.70
2019-02-15T00:11:12.480Z,7.70
2019-02-15T00:13:41.415Z,8.70
2019-02-15T00:16:10.168Z,9.73
2019-02-15T00:18:51.683Z,8.67
2019-02-15T00:21:23.338Z,8.20
2019-02-15T00:23:52.336Z,7.57
2019-02-15T00:26:21.028Z,7.93
2019-02-15T00:28:49.959Z,8.67
2019-02-15T00:31:21.045Z,9.13
2019-02-15T00:33:49.681Z,8.40
2019-02-15T00:36:18.965Z,8.67
2019-02-15T00:38:47.694Z,8.90
2019-02-15T00:41:16.967Z,9.47
2019-02-15T00:43:45.831Z,8.47
2019-02-15T00:46:27.223Z,8.37
2019-02-15T00:48:56.463Z,8.43
2019-02-15T00:51:49.727Z,9.07
2019-02-15T00:54:43.798Z,9.03
2019-02-15T00:57:21.096Z,8.47
2019-02-15T01:00:01.977Z,8.53
2019-02-15T01:02:42.691Z,8.87
2019-02-15T01:05:42.844Z,8.33
2019-02-15T01:08:21.895Z,8.67
2019-02-15T01:10:56.799Z,7.73
2019-02-15T01:13:31.162Z,7.43
2019-02-15T01:15:56.883Z,8.27
2019-02-15T01:18:25.841Z,7.83
2019-02-15T01:20:54.536Z,8.47
2019-02-15T01:23:23.470Z,8.20
2019-02-15T01:26:06.689Z,8.23
2019-02-15T01:28:41.332Z,8.07
2019-02-15T01:31:41.165Z,7.37
2019-02-15T01:34:27.663Z,8.33
2019-02-15T01:37:13.360Z,8.50
2019-02-15T01:39:47.854Z,7.77
2019-02-15T01:42:31.883Z,8.57
2019-02-15T01:45:18.192Z,9.13
2019-02-15T01:47:48.812Z,8.13
2019-02-15T01:50:17.444Z,8.00
2019-02-15T01:52:46.122Z,7.83
2019-02-15T01:55:14.850Z,9.80
2019-02-15T01:57:43.760Z,8.30
2019-02-15T02:00:15.064Z,8.60
2019-02-15T02:02:43.704Z,9.30
2019-02-15T02:05:12.438Z,9.23
2019-02-15T02:07:41.105Z,8.63
2019-02-15T02:10:10.690Z,7.80
2019-02-15T02:12:39.424Z,8.67
2019-02-15T02:15:09.754Z,7.23
2019-02-15T02:17:38.413Z,8.83
2019-02-15T02:20:08.761Z,7.37
2019-02-15T02:22:37.443Z,8.20
2019-02-15T02:25:06.439Z,7.30
2019-02-15T02:27:35.600Z,8.27
2019-02-15T02:30:06.575Z,7.93
2019-02-15T02:32:35.536Z,7.70
2019-02-15T02:35:04.465Z,6.90
2019-02-15T02:37:33.127Z,7.47
2019-02-15T02:40:01.803Z,7.77
2019-02-15T02:42:30.451Z,7.73
2019-02-15T02:44:59.407Z,7.63
2019-02-15T02:47:28.112Z,7.63
2019-02-15T02:50:00.274Z,8.07
2019-02-15T02:52:29.406Z,8.27
2019-02-15T02:55:01.152Z,7.53
2019-02-15T02:57:29.878Z,6.13
2019-02-15T02:59:58.551Z,6.97
2019-02-15T03:02:27.329Z,7.67
2019-02-15T03:04:56.212Z,8.13
2019-02-15T03:07:24.858Z,7.53
2019-02-15T03:09:53.911Z,7.70
2019-02-15T03:12:22.907Z,6.80
2019-02-15T03:14:51.531Z,8.30
2019-02-15T03:17:20.183Z,7.47
2019-02-15T03:19:48.823Z,8.07
2019-02-15T03:22:17.775Z,8.63
2019-02-15T03:24:46.426Z,8.67
2019-02-15T03:27:15.107Z,8.10
2019-02-15T03:29:43.733Z,7.47
2019-02-15T03:32:12.684Z,7.93
2019-02-15T03:34:41.694Z,7.73
2019-02-15T03:37:28.131Z,7.17
2019-02-15T03:40:01.565Z,8.67
2019-02-15T03:42:30.199Z,7.77
2019-02-15T03:44:59.099Z,7.47
2019-02-15T03:47:28.007Z,8.63
2019-02-15T03:49:57.166Z,6.73
2019-02-15T03:52:25.832Z,6.80
2019-02-15T03:54:54.735Z,7.67
2019-02-15T03:57:23.606Z,8.13
2019-02-15T03:59:52.342Z,7.70
2019-02-15T04:02:21.270Z,8.13
2019-02-15T04:04:49.994Z,7.00
2019-02-15T04:07:18.979Z,6.97
2019-02-15T04:09:47.634Z,7.20
2019-02-15T04:12:16.616Z,7.47
2019-02-15T04:14:45.260Z,7.93
2019-02-15T04:17:13.906Z,6.97
2019-02-15T04:19:42.559Z,6.47
2019-02-15T04:22:11.217Z,7.03
2019-02-15T04:24:40.092Z,6.77
2019-02-15T04:27:09.047Z,8.40
2019-02-15T04:29:37.687Z,6.37
2019-02-15T04:32:06.391Z,6.90
2019-02-15T04:34:35.136Z,7.27
2019-02-15T04:37:04.046Z,6.57
2019-02-15T04:39:32.690Z,7.87
2019-02-15T04:42:01.352Z,7.33
2019-02-15T04:44:30.279Z,7.60
2019-02-15T04:46:59.282Z,7.53
2019-02-15T04:49:28.317Z,7.50
2019-02-15T04:51:57.303Z,7.37
2019-02-15T04:54:25.972Z,7.13
2019-02-15T04:56:55.486Z,6.67
2019-02-15T04:59:24.134Z,6.73
2019-02-15T05:01:52.821Z,6.97
2019-02-15T05:04:21.748Z,6.03
2019-02-15T05:06:50.711Z,6.53
2019-02-15T05:09:19.387Z,7.63
2019-02-15T05:11:48.052Z,7.03
2019-02-15T05:14:16.701Z,8.30
2019-02-15T05:16:45.360Z,6.37
2019-02-15T05:19:14.030Z,6.57
2019-02-15T05:21:43.236Z,7.13
2019-02-15T05:24:11.914Z,7.73
2019-02-15T05:26:40.542Z,7.20
2019-02-15T05:29:09.233Z,6.77
2019-02-15T05:31:37.882Z,7.50
2019-02-15T05:34:06.556Z,11.43
2019-02-15T05:36:35.203Z,16.37
2019-02-15T05:39:04.613Z,13.17
2019-02-15T05:41:33.375Z,10.20
2019-02-15T05:44:02.088Z,9.87
2019-02-15T05:46:30.842Z,8.47
2019-02-15T05:49:00.186Z,10.47
2019-02-15T05:51:28.830Z,9.03
2019-02-15T05:53:57.758Z,8.87
2019-02-15T05:56:26.433Z,9.67
2019-02-15T05:58:55.095Z,9.77
2019-02-15T06:01:25.149Z,9.33
2019-02-15T06:03:54.449Z,8.80
2019-02-15T06:06:23.369Z,8.30
2019-02-15T06:08:52.290Z,7.83
2019-02-15T06:11:20.951Z,6.70
2019-02-15T06:13:49.943Z,7.27
2019-02-15T06:16:18.583Z,8.13
2019-02-15T06:18:47.255Z,8.10
2019-02-15T06:21:16.261Z,6.90
2019-02-15T06:23:44.925Z,7.13
2019-02-15T06:26:13.898Z,7.63
2019-02-15T06:28:42.656Z,6.87
2019-02-15T06:31:11.383Z,7.30
2019-02-15T06:33:40.503Z,7.70
2019-02-15T06:36:09.235Z,7.97
2019-02-15T06:38:37.968Z,7.77
2019-02-15T06:41:07.066Z,7.60
2019-02-15T06:43:35.723Z,8.57
2019-02-15T06:46:04.363Z,8.03
2019-02-15T06:48:33.308Z,9.57
2019-02-15T06:51:01.965Z,10.90
2019-02-15T06:53:30.871Z,9.30
2019-02-15T06:55:59.596Z,10.90
2019-02-15T06:58:28.270Z,9.87
2019-02-15T07:01:16.034Z,8.23
2019-02-15T07:04:09.930Z,8.87
2019-02-15T07:06:39.219Z,7.27
2019-02-15T07:09:08.429Z,7.00
2019-02-15T07:11:37.058Z,7.30
2019-02-15T07:14:05.721Z,8.93
2019-02-15T07:16:34.338Z,8.67
2019-02-15T07:19:02.978Z,8.47
2019-02-15T07:21:31.612Z,9.33
2019-02-15T07:24:00.245Z,8.77
2019-02-15T07:26:28.887Z,8.13
2019-02-15T07:28:57.748Z,7.17
2019-02-15T07:31:26.389Z,6.13
2019-02-15T07:33:55.017Z,6.23
2019-02-15T07:36:24.184Z,6.60
2019-02-15T07:38:52.862Z,7.00
2019-02-15T07:41:21.535Z,6.63
2019-02-15T07:43:50.171Z,6.30
2019-02-15T07:46:18.830Z,6.17
2019-02-15T07:48:47.767Z,6.30
2019-02-15T07:51:16.410Z,5.93
2019-02-15T07:53:45.161Z,6.53
2019-02-15T07:56:13.801Z,5.73
2019-02-15T07:58:42.467Z,6.33
2019-02-15T08:01:11.383Z,6.57
2019-02-15T08:03:40.050Z,6.30
2019-02-15T08:06:08.688Z,5.67
2019-02-15T08:08:37.318Z,6.30
2019-02-15T08:11:06.045Z,6.30
2019-02-15T08:13:35.179Z,6.03
2019-02-15T08:16:03.830Z,6.80
2019-02-15T08:18:32.785Z,6.10
2019-02-15T08:21:01.486Z,6.20
2019-02-15T08:23:30.139Z,6.40
2019-02-15T08:25:58.773Z,6.17
2019-02-15T08:28:28.389Z,6.47
2019-02-15T08:30:57.078Z,5.87
2019-02-15T08:33:25.711Z,6.20
2019-02-15T08:35:54.706Z,6.33
2019-02-15T08:38:23.358Z,5.90
2019-02-15T08:40:52.336Z,6.63
2019-02-15T08:43:21.373Z,6.83
2019-02-15T08:45:50.029Z,6.43
2019-02-15T08:48:19.362Z,6.10
2019-02-15T08:50:48.066Z,6.17
2019-02-15T08:53:16.742Z,6.47
2019-02-15T08:55:45.398Z,6.90
2019-02-15T08:58:14.050Z,6.30
2019-02-15T09:00:42.730Z,6.70
2019-02-15T09:03:11.784Z,5.97
2019-02-15T09:05:40.539Z,6.47
2019-02-15T09:08:09.183Z,6.50
2019-02-15T09:10:38.075Z,6.30
2019-02-15T09:13:06.721Z,6.50
2019-02-15T09:15:35.378Z,6.40
2019-02-15T09:18:04.016Z,7.93
2019-02-15T09:20:32.648Z,7.47
2019-02-15T09:23:01.301Z,7.93
2019-02-15T09:25:29.949Z,7.20
2019-02-15T09:28:17.943Z,6.63
2019-02-15T09:30:54.201Z,7.13
2019-02-15T09:33:22.829Z,7.10
2019-02-15T09:35:51.459Z,7.37
2019-02-15T09:38:20.386Z,7.13
2019-02-15T09:40:49.042Z,7.20
2019-02-15T09:43:18.011Z,7.87
2019-02-15T09:45:46.719Z,6.80
2019-02-15T09:48:15.660Z,7.40
2019-02-15T09:50:44.303Z,7.57
2019-02-15T09:53:12.981Z,7.40
2019-02-15T09:55:41.621Z,7.23
2019-02-15T09:58:10.643Z,7.60
2019-02-15T10:00:39.507Z,7.30
2019-02-15T10:03:08.432Z,7.23
2019-02-15T10:05:37.303Z,7.43
2019-02-15T10:08:05.967Z,7.63
2019-02-15T10:10:34.737Z,7.33
2019-02-15T10:13:03.650Z,7.50
2019-02-15T10:15:32.285Z,7.80
2019-02-15T10:18:00.923Z,8.03
2019-02-15T10:20:29.943Z,8.13
2019-02-15T10:22:58.886Z,7.77
2019-02-15T10:25:27.530Z,7.70
2019-02-15T10:27:56.508Z,7.77
2019-02-15T10:30:25.142Z,7.50
2019-02-15T10:32:54.026Z,7.83
2019-02-15T10:35:22.749Z,8.43
2019-02-15T10:37:51.418Z,6.87
2019-02-15T10:40:20.075Z,7.33
2019-02-15T10:42:48.977Z,8.33
2019-02-15T10:45:17.862Z,7.23
2019-02-15T10:47:46.511Z,8.07
2019-02-15T10:50:15.162Z,7.60
2019-02-15T10:52:43.826Z,8.30
2019-02-15T10:55:12.574Z,8.18
2019-02-15T10:57:41.250Z,7.90
2019-02-15T11:00:15.386Z,8.43
2019-02-15T11:02:44.794Z,7.50
2019-02-15T11:05:14.122Z,7.83
2019-02-15T11:07:42.834Z,7.25
2019-02-15T11:10:11.938Z,7.75
2019-02-15T11:12:40.951Z,7.87
2019-02-15T11:15:10.835Z,6.72
2019-02-15T11:17:39.884Z,6.75
2019-02-15T11:20:09.951Z,7.62
2019-02-15T11:22:38.618Z,7.15
2019-02-15T11:25:08.800Z,8.05
2019-02-15T11:27:37.436Z,6.70
2019-02-15T11:30:09.091Z,6.77
2019-02-15T11:32:37.775Z,6.92
2019-02-15T11:35:07.905Z,7.73
2019-02-15T11:37:36.879Z,7.00
2019-02-15T11:40:06.725Z,7.35
2019-02-15T11:42:35.362Z,6.95
2019-02-15T11:45:04.238Z,6.63
2019-02-15T11:47:32.895Z,7.07
2019-02-15T11:50:01.823Z,6.37
2019-02-15T11:52:30.495Z,6.90
2019-02-15T11:54:59.146Z,7.03
2019-02-15T11:57:28.102Z,6.95
2019-02-15T11:59:56.746Z,6.53
2019-02-15T12:02:25.391Z,7.03
2019-02-15T12:04:54.362Z,6.70
2019-02-15T12:07:23.107Z,7.13
2019-02-15T12:09:52.056Z,6.90
2019-02-15T12:12:20.934Z,6.47
2019-02-15T12:14:49.849Z,6.83
2019-02-15T12:17:18.803Z,7.23
2019-02-15T12:19:47.609Z,6.60
2019-02-15T12:22:16.238Z,7.20
2019-02-15T12:24:44.901Z,6.43
2019-02-15T12:27:13.534Z,6.43
2019-02-15T12:29:42.175Z,6.87
2019-02-15T12:32:11.103Z,7.13
2019-02-15T12:34:40.399Z,6.60
2019-02-15T12:37:09.427Z,5.60
2019-02-15T12:39:38.622Z,6.10
2019-02-15T12:42:07.569Z,6.20
2019-02-15T12:44:36.231Z,6.70
2019-02-15T12:47:05.190Z,5.70
2019-02-15T12:49:33.841Z,5.73
2019-02-15T12:52:02.502Z,5.70
2019-02-15T12:54:31.184Z,5.60
2019-02-15T12:56:59.838Z,5.93
2019-02-15T12:59:29.918Z,5.73
2019-02-15T13:01:58.667Z,5.30
2019-02-15T13:04:27.312Z,5.47
2019-02-15T13:06:56.022Z,5.47
2019-02-15T13:09:24.928Z,5.90
2019-02-15T13:11:53.822Z,5.17
2019-02-15T13:14:22.466Z,5.13
2019-02-15T13:16:51.126Z,5.10
2019-02-15T13:19:19.807Z,4.90
2019-02-15T13:21:49.574Z,5.07
2019-02-15T13:24:18.298Z,4.67
2019-02-15T13:26:47.349Z,4.83
2019-02-15T13:29:16.259Z,4.40
2019-02-15T13:31:45.271Z,5.57
2019-02-15T13:34:14.268Z,5.10
2019-02-15T13:36:43.319Z,5.20
2019-02-15T13:39:12.003Z,4.87
2019-02-15T13:41:41.018Z,4.43
2019-02-15T13:44:09.943Z,4.70
2019-02-15T13:46:38.627Z,4.50
2019-02-15T13:49:07.307Z,4.67
2019-02-15T13:51:36.017Z,4.30
2019-02-15T13:54:04.737Z,4.87
2019-02-15T13:56:33.426Z,4.23
2019-02-15T13:59:02.162Z,4.73
2019-02-15T14:01:31.111Z,4.20
2019-02-15T14:03:59.836Z,4.17
2019-02-15T14:06:28.563Z,3.93
2019-02-15T14:08:57.544Z,3.83
2019-02-15T14:11:26.515Z,3.80
2019-02-15T14:13:55.774Z,4.20
2019-02-15T14:16:24.435Z,4.07
2019-02-15T14:18:53.583Z,3.87
2019-02-15T14:21:22.292Z,3.60
2019-02-15T14:23:51.156Z,3.43
2019-02-15T14:26:20.132Z,4.27
2019-02-15T14:28:48.754Z,4.63
2019-02-15T14:31:17.414Z,4.20
2019-02-15T14:33:46.028Z,4.27
2019-02-15T14:36:14.658Z,4.07
2019-02-15T14:38:43.641Z,3.73
2019-02-15T14:41:12.316Z,3.73
2019-02-15T14:43:41.326Z,3.40
2019-02-15T14:46:10.231Z,3.60
2019-02-15T14:48:40.280Z,3.90
2019-02-15T14:51:08.982Z,4.20
2019-02-15T14:53:40.106Z,3.37
2019-02-15T14:56:08.818Z,3.83
2019-02-15T14:58:37.755Z,3.67
2019-02-15T15:01:06.430Z,4.00
2019-02-15T15:03:35.115Z,4.10
2019-02-15T15:06:03.787Z,3.87
2019-02-15T15:08:32.452Z,3.90
2019-02-15T15:11:01.155Z,3.73
2019-02-15T15:13:30.038Z,3.87
2019-02-15T15:15:58.714Z,3.63
2019-02-15T15:18:28.435Z,3.90
2019-02-15T15:20:57.146Z,4.07
2019-02-15T15:23:25.789Z,3.90
2019-02-15T15:25:54.762Z,3.30
2019-02-15T15:28:23.811Z,4.07
2019-02-15T15:30:52.739Z,3.97
2019-02-15T15:33:21.637Z,3.27
2019-02-15T15:35:50.266Z,3.30
2019-02-15T15:38:18.919Z,2.67
2019-02-15T15:40:47.580Z,3.20
2019-02-15T15:43:16.258Z,2.77
2019-02-15T15:45:44.900Z,2.90
2019-02-15T15:48:22.167Z,2.90
2019-02-15T15:50:44.006Z,3.07
2019-02-15T15:53:12.923Z,3.23
2019-02-15T15:55:41.586Z,3.40
2019-02-15T15:58:10.959Z,3.50
2019-02-15T16:00:39.894Z,3.47
2019-02-15T16:03:08.882Z,3.50
2019-02-15T16:05:37.583Z,3.57
2019-02-15T16:08:06.255Z,3.53
2019-02-15T16:10:34.948Z,3.60
2019-02-15T16:13:03.694Z,4.03
2019-02-15T16:15:32.993Z,3.80
2019-02-15T16:18:01.966Z,3.93
2019-02-15T16:20:30.647Z,4.73
2019-02-15T16:22:59.691Z,4.13
2019-02-15T16:25:28.766Z,4.13
2019-02-15T16:27:57.405Z,3.93
2019-02-15T16:30:26.685Z,3.73
2019-02-15T16:32:55.363Z,4.07
2019-02-15T16:35:24.356Z,4.67
2019-02-15T16:37:53.359Z,4.07
2019-02-15T16:40:22.364Z,4.87
2019-02-15T16:42:51.026Z,5.37
2019-02-15T16:45:19.680Z,5.27
2019-02-15T16:47:48.317Z,5.03
2019-02-15T16:50:17.046Z,5.10
2019-02-15T16:52:45.682Z,5.53
2019-02-15T16:55:14.297Z,5.30
2019-02-15T16:57:43.005Z,5.60
2019-02-15T17:00:11.984Z,5.17
2019-02-15T17:02:40.641Z,4.97
2019-02-15T17:05:09.298Z,5.77
2019-02-15T17:07:37.989Z,5.10
2019-02-15T17:10:07.777Z,5.40
2019-02-15T17:12:37.209Z,5.77
2019-02-15T17:15:07.404Z,5.30
2019-02-15T17:17:36.115Z,5.63
2019-02-15T17:20:05.236Z,6.00
2019-02-15T17:22:33.892Z,4.97
2019-02-15T17:25:03.220Z,5.17
2019-02-15T17:27:31.846Z,5.87
2019-02-15T17:30:00.478Z,5.30
2019-02-15T17:32:29.444Z,5.67
2019-02-15T17:34:58.304Z,5.70
2019-02-15T17:37:27.019Z,5.30
2019-02-15T17:39:55.923Z,5.60
2019-02-15T17:42:24.960Z,4.97
2019-02-15T17:44:53.838Z,5.73
2019-02-15T17:47:22.486Z,5.97
2019-02-15T17:49:51.914Z,4.97
2019-02-15T17:52:21.391Z,5.30
2019-02-15T17:54:50.372Z,7.03
2019-02-15T17:57:23.986Z,5.13
2019-02-15T17:59:52.658Z,5.90
2019-02-15T18:02:22.019Z,5.80
2019-02-15T18:04:50.687Z,6.00
2019-02-15T18:07:19.523Z,5.43
2019-02-15T18:09:48.136Z,5.17
2019-02-15T18:12:17.736Z,5.00
2019-02-15T18:14:46.394Z,5.03
2019-02-15T18:17:15.051Z,5.17
2019-02-15T18:19:47.285Z,5.87
2019-02-15T18:22:14.080Z,6.00
2019-02-15T18:24:43.127Z,5.77
2019-02-15T18:27:14.620Z,5.97
2019-02-15T18:29:43.679Z,6.47
2019-02-15T18:32:12.950Z,6.57
2019-02-15T18:34:41.641Z,6.87
2019-02-15T18:37:10.315Z,6.10
2019-02-15T18:39:39.039Z,6.90
2019-02-15T18:42:07.716Z,6.63
2019-02-15T18:44:36.934Z,7.13
2019-02-15T18:47:05.774Z,6.13
2019-02-15T18:49:34.770Z,6.70
2019-02-15T18:52:04.687Z,7.40
2019-02-15T18:54:33.696Z,6.17
2019-02-15T18:57:02.331Z,5.47
2019-02-15T18:59:30.987Z,5.70
2019-02-15T19:01:59.942Z,5.80
2019-02-15T19:04:28.897Z,5.90
2019-02-15T19:06:57.534Z,5.63
2019-02-15T19:09:26.325Z,6.30
2019-02-15T19:11:55.054Z,6.20
2019-02-15T19:14:23.744Z,6.27
2019-02-15T19:16:53.083Z,6.90
2019-02-15T19:19:28.864Z,6.67
2019-02-15T19:21:52.074Z,6.57
2019-02-15T19:24:21.052Z,6.90
2019-02-15T19:26:49.918Z,7.13
2019-02-15T19:29:18.602Z,6.87
2019-02-15T19:31:47.302Z,7.30
2019-02-15T19:34:16.417Z,7.27
2019-02-15T19:36:45.370Z,6.80
2019-02-15T19:39:14.135Z,6.87
2019-02-15T19:41:42.771Z,7.00
2019-02-15T19:44:11.881Z,6.87
2019-02-15T19:46:40.552Z,7.53
2019-02-15T19:49:09.837Z,6.17
2019-02-15T19:51:38.717Z,6.80
2019-02-15T19:54:07.352Z,6.97
2019-02-15T19:56:36.231Z,7.40
2019-02-15T19:59:05.023Z,7.37
2019-02-15T20:01:33.678Z,7.83
2019-02-15T20:04:02.613Z,7.27
2019-02-15T20:06:31.249Z,7.07
2019-02-15T20:09:00.226Z,6.70
2019-02-15T20:11:28.953Z,7.47
2019-02-15T20:13:59.870Z,6.97
2019-02-15T20:16:28.036Z,7.23
2019-02-15T20:18:56.681Z,7.50
2019-02-15T20:21:25.640Z,7.70
2019-02-15T20:23:54.304Z,7.43
2019-02-15T20:26:22.943Z,7.80
2019-02-15T20:28:51.642Z,7.87
2019-02-15T20:31:20.885Z,7.83
2019-02-15T20:33:54.323Z,7.67
2019-02-15T20:36:23.009Z,7.83
2019-02-15T20:38:51.775Z,9.07
2019-02-15T20:41:20.644Z,6.77
2019-02-15T20:43:49.304Z,6.33
2019-02-15T20:46:17.948Z,7.40
2019-02-15T20:48:46.696Z,7.33
2019-02-15T20:51:15.353Z,7.23
2019-02-15T20:53:44.238Z,7.40
2019-02-15T20:56:12.903Z,6.30
2019-02-15T20:58:41.630Z,6.77
2019-02-15T21:01:10.318Z,6.13
2019-02-15T21:03:39.390Z,7.10
2019-02-15T21:06:08.071Z,7.27
2019-02-15T21:08:36.747Z,6.63
2019-02-15T21:11:05.823Z,7.57
2019-02-15T21:13:34.547Z,7.30
2019-02-15T21:16:03.193Z,6.43
2019-02-15T21:18:32.186Z,6.93
2019-02-15T21:21:00.831Z,6.77
2019-02-15T21:23:29.482Z,7.23
2019-02-15T21:25:58.130Z,7.07
2019-02-15T21:28:26.772Z,6.73
2019-02-15T21:30:55.419Z,7.30
2019-02-15T21:33:24.042Z,7.70
2019-02-15T21:35:52.692Z,7.40
2019-02-15T21:38:21.786Z,6.77
2019-02-15T21:40:50.435Z,7.00
2019-02-15T21:43:19.462Z,6.27
2019-02-15T21:45:48.106Z,7.70
2019-02-15T21:48:17.178Z,6.97
2019-02-15T21:50:46.143Z,7.13
2019-02-15T21:53:15.167Z,6.00
2019-02-15T21:56:55.431Z,7.03
2019-02-15T21:59:24.092Z,6.27
2019-02-15T22:01:53.000Z,6.57
2019-02-15T22:04:21.659Z,7.30
2019-02-15T22:06:50.352Z,6.97
2019-02-15T22:09:19.367Z,6.50
2019-02-15T22:11:48.098Z,7.23
2019-02-15T22:14:17.442Z,6.20
2019-02-15T22:16:46.146Z,9.90
2019-02-15T22:19:15.072Z,7.60
2019-02-15T22:21:44.303Z,6.17
2019-02-15T22:24:12.980Z,6.47
2019-02-15T22:26:41.886Z,6.27
2019-02-15T22:29:10.695Z,6.03
2019-02-15T22:31:39.345Z,6.67
2019-02-15T22:34:08.091Z,5.57
2019-02-15T22:36:36.829Z,6.90
2019-02-15T22:39:06.239Z,6.07
2019-02-15T22:41:34.907Z,6.43
2019-02-15T22:44:03.816Z,5.77
2019-02-15T22:46:32.481Z,6.47
2019-02-15T22:49:01.160Z,5.20
2019-02-15T22:51:29.902Z,6.00
2019-02-15T22:53:59.064Z,7.43
2019-02-15T22:56:27.966Z,5.93
2019-02-15T22:58:56.637Z,5.30
2019-02-15T23:01:25.747Z,6.40
2019-02-15T23:03:54.407Z,5.57
2019-02-15T23:06:23.327Z,5.90
2019-02-15T23:08:52.059Z,6.20
2019-02-15T23:11:39.971Z,6.47
2019-02-15T23:14:08.755Z,6.40
2019-02-15T23:16:37.794Z,5.83
2019-02-15T23:19:06.487Z,5.50
2019-02-15T23:21:35.148Z,5.67
2019-02-15T23:24:04.109Z,5.63
2019-02-15T23:26:32.743Z,5.73
2019-02-15T23:29:01.430Z,5.93
2019-02-15T23:31:30.777Z,6.30
2019-02-15T23:33:59.445Z,5.47
2019-02-15T23:36:28.930Z,5.73
2019-02-15T23:38:58.049Z,6.13
2019-02-15T23:41:26.708Z,5.67
2019-02-15T23:43:55.364Z,5.10
2019-02-15T23:46:24.036Z,6.03
2019-02-15T23:48:52.866Z,5.80
2019-02-15T23:53:50.814Z,5.53
2019-02-15T23:56:20.023Z,5.30
2019-02-15T23:58:49.192Z,5.90
